createdAt,value
2022-10-10T00:00:48.494Z,3.30
2022-10-10T00:01:50.749Z,3.27
2022-10-10T00:02:53.214Z,3.40
2022-10-10T00:03:56.040Z,3.40
2022-10-10T00:05:01.297Z,3.17
2022-10-10T00:06:03.930Z,3.57
2022-10-10T00:07:06.324Z,3.43
2022-10-10T00:08:08.841Z,3.30
2022-10-10T00:09:11.053Z,3.13
2022-10-10T00:10:13.281Z,3.43
2022-10-10T00:11:17.096Z,3.43
2022-10-10T00:12:19.393Z,3.43
2022-10-10T00:13:21.981Z,3.30
2022-10-10T00:14:24.184Z,3.33
2022-10-10T00:15:26.881Z,3.40
2022-10-10T00:16:29.145Z,3.33
2022-10-10T00:17:31.579Z,2.90
2022-10-10T00:18:34.410Z,3.23
2022-10-10T00:19:36.707Z,3.17
2022-10-10T00:20:38.988Z,2.97
2022-10-10T00:21:41.316Z,3.63
2022-10-10T00:22:43.917Z,3.23
2022-10-10T00:23:46.212Z,2.93
2022-10-10T00:24:50.976Z,3.00
2022-10-10T00:25:53.701Z,3.23
2022-10-10T00:26:55.928Z,3.27
2022-10-10T00:28:02.754Z,3.57
2022-10-10T00:29:07.495Z,3.50
2022-10-10T00:30:11.153Z,3.17
2022-10-10T00:31:13.722Z,3.20
2022-10-10T00:32:15.908Z,3.13
2022-10-10T00:33:18.224Z,3.13
2022-10-10T00:34:26.605Z,2.93
2022-10-10T00:35:29.187Z,3.23
2022-10-10T00:36:31.496Z,3.10
2022-10-10T00:37:33.684Z,3.17
2022-10-10T00:38:35.958Z,3.10
2022-10-10T00:39:41.206Z,2.87
2022-10-10T00:40:52.390Z,3.00
2022-10-10T00:41:54.611Z,3.17
2022-10-10T00:42:56.895Z,3.00
2022-10-10T00:44:14.632Z,3.60
2022-10-10T00:45:28.429Z,3.00
2022-10-10T00:46:31.132Z,3.40
2022-10-10T00:47:34.521Z,3.20
2022-10-10T00:48:43.633Z,3.07
2022-10-10T00:49:45.861Z,3.17
2022-10-10T00:50:57.475Z,2.80
2022-10-10T00:52:00.454Z,2.97
2022-10-10T00:53:08.238Z,3.23
2022-10-10T00:54:12.956Z,2.80
2022-10-10T00:55:15.910Z,2.67
2022-10-10T00:56:21.742Z,3.10
2022-10-10T00:57:24.012Z,2.90
2022-10-10T00:58:26.540Z,2.73
2022-10-10T00:59:33.164Z,2.83
2022-10-10T01:00:35.469Z,3.03
2022-10-10T01:01:38.892Z,2.80
2022-10-10T01:02:41.229Z,2.83
2022-10-10T01:03:43.713Z,2.80
2022-10-10T01:04:45.965Z,2.90
2022-10-10T01:05:50.097Z,2.63
2022-10-10T01:06:59.699Z,2.60
2022-10-10T01:08:06.664Z,2.57
2022-10-10T01:09:08.839Z,2.60
2022-10-10T01:10:20.391Z,2.43
2022-10-10T01:11:44.963Z,2.70
2022-10-10T01:13:07.506Z,3.10
2022-10-10T01:14:24.559Z,2.87
2022-10-10T01:15:54.033Z,2.63
2022-10-10T01:17:06.217Z,2.73
2022-10-10T01:18:24.533Z,2.70
2022-10-10T01:19:38.664Z,2.93
2022-10-10T01:21:02.685Z,2.70
2022-10-10T01:22:11.260Z,2.77
2022-10-10T01:23:32.244Z,2.83
2022-10-10T01:24:47.579Z,2.73
2022-10-10T01:26:10.179Z,2.60
2022-10-10T01:27:41.644Z,2.73
2022-10-10T01:28:46.347Z,2.70
2022-10-10T01:29:52.913Z,2.50
2022-10-10T01:30:57.738Z,2.43
2022-10-10T01:32:14.763Z,2.90
2022-10-10T01:33:28.252Z,2.30
2022-10-10T01:34:33.200Z,2.40
2022-10-10T01:36:01.574Z,2.53
2022-10-10T01:37:09.572Z,2.50
2022-10-10T01:38:44.932Z,2.77
2022-10-10T01:40:04.461Z,2.53
2022-10-10T01:41:13.740Z,2.50
2022-10-10T01:42:29.665Z,2.70
2022-10-10T01:43:32.273Z,2.43
2022-10-10T01:44:37.465Z,2.60
2022-10-10T01:45:48.774Z,2.40
2022-10-10T01:46:50.973Z,2.40
2022-10-10T01:47:59.377Z,2.30
2022-10-10T01:49:02.201Z,2.50
2022-10-10T01:50:10.469Z,2.50
2022-10-10T01:51:17.934Z,2.43
2022-10-10T01:52:33.681Z,2.50
2022-10-10T01:53:50.826Z,2.80
2022-10-10T01:55:26.984Z,2.63
2022-10-10T01:56:41.405Z,2.30
2022-10-10T01:58:31.202Z,2.37
2022-10-10T01:59:47.052Z,2.50
2022-10-10T02:01:07.648Z,2.60
2022-10-10T02:02:38.667Z,3.03
2022-10-10T02:03:46.837Z,2.57
2022-10-10T02:04:56.998Z,2.30
2022-10-10T02:06:25.834Z,2.40
2022-10-10T02:07:35.560Z,2.37
2022-10-10T02:08:43.596Z,2.40
2022-10-10T02:09:46.865Z,2.20
2022-10-10T02:10:53.347Z,2.33
2022-10-10T02:11:58.289Z,2.47
2022-10-10T02:13:02.829Z,2.60
2022-10-10T02:14:29.133Z,2.50
2022-10-10T02:15:40.497Z,2.20
2022-10-10T02:16:49.452Z,2.17
2022-10-10T02:17:52.421Z,2.40
2022-10-10T02:18:57.892Z,2.50
2022-10-10T02:20:00.672Z,2.23
2022-10-10T02:21:06.529Z,2.23
2022-10-10T02:22:10.742Z,2.60
2022-10-10T02:23:16.909Z,2.30
2022-10-10T02:24:22.523Z,2.50
2022-10-10T02:25:29.467Z,2.10
2022-10-10T02:26:32.365Z,2.50
2022-10-10T02:27:49.024Z,2.40
2022-10-10T02:29:04.428Z,2.50
2022-10-10T02:30:07.347Z,2.40
2022-10-10T02:31:14.733Z,2.20
2022-10-10T02:32:26.270Z,2.40
2022-10-10T02:33:52.944Z,2.63
2022-10-10T02:35:00.651Z,2.50
2022-10-10T02:36:04.178Z,2.33
2022-10-10T02:37:12.658Z,2.20
2022-10-10T02:38:16.070Z,2.50
2022-10-10T02:39:22.210Z,2.70
2022-10-10T02:40:29.081Z,2.40
2022-10-10T02:41:33.395Z,2.60
2022-10-10T02:42:37.093Z,2.13
2022-10-10T02:43:39.680Z,2.30
2022-10-10T02:44:42.556Z,2.30
2022-10-10T02:45:44.919Z,2.40
2022-10-10T02:46:47.133Z,2.13
2022-10-10T02:47:50.975Z,2.83
2022-10-10T02:48:53.204Z,2.27
2022-10-10T02:49:55.386Z,2.00
2022-10-10T02:51:00.364Z,2.37
2022-10-10T02:52:04.865Z,2.53
2022-10-10T02:53:07.154Z,2.60
2022-10-10T02:54:09.537Z,2.17
2022-10-10T02:55:11.839Z,2.50
2022-10-10T02:56:14.481Z,2.37
2022-10-10T02:57:16.687Z,2.30
2022-10-10T02:58:19.277Z,2.40
2022-10-10T02:59:21.512Z,2.10
2022-10-10T03:00:23.714Z,2.30
2022-10-10T03:01:26.019Z,2.33
2022-10-10T03:02:28.379Z,2.30
2022-10-10T03:03:30.590Z,2.53
2022-10-10T03:04:32.844Z,2.50
2022-10-10T03:05:35.037Z,1.93
2022-10-10T03:06:37.252Z,2.40
2022-10-10T03:07:39.611Z,2.37
2022-10-10T03:08:41.921Z,2.30
2022-10-10T03:09:44.207Z,1.93
2022-10-10T03:11:00.768Z,2.40
2022-10-10T03:12:03.637Z,2.10
2022-10-10T03:13:05.869Z,2.30
2022-10-10T03:14:08.115Z,2.10
2022-10-10T03:15:11.827Z,2.37
2022-10-10T03:16:14.409Z,2.30
2022-10-10T03:17:16.751Z,2.40
2022-10-10T03:18:19.929Z,2.37
2022-10-10T03:19:22.091Z,2.40
2022-10-10T03:20:24.762Z,2.27
2022-10-10T03:21:26.968Z,2.37
2022-10-10T03:22:29.428Z,2.30
2022-10-10T03:23:33.053Z,2.13
2022-10-10T03:24:35.289Z,2.20
2022-10-10T03:25:41.320Z,2.17
2022-10-10T03:26:43.923Z,2.13
2022-10-10T03:27:46.169Z,2.23
2022-10-10T03:28:48.417Z,2.53
2022-10-10T03:29:50.602Z,2.30
2022-10-10T03:30:52.838Z,2.23
2022-10-10T03:31:55.001Z,2.33
2022-10-10T03:32:57.216Z,2.50
2022-10-10T03:33:59.563Z,2.20
2022-10-10T03:35:01.715Z,1.80
2022-10-10T03:36:04.596Z,2.60
2022-10-10T03:37:07.000Z,2.40
2022-10-10T03:38:11.431Z,2.17
2022-10-10T03:39:13.667Z,2.00
2022-10-10T03:40:15.900Z,2.30
2022-10-10T03:41:18.098Z,2.20
2022-10-10T03:42:20.320Z,2.20
2022-10-10T03:43:22.519Z,2.20
2022-10-10T03:44:24.803Z,2.30
2022-10-10T03:45:27.033Z,2.60
2022-10-10T03:46:29.287Z,2.30
2022-10-10T03:47:31.437Z,2.53
2022-10-10T03:48:33.642Z,2.37
2022-10-10T03:49:35.805Z,2.77
2022-10-10T03:50:38.178Z,2.03
2022-10-10T03:51:40.408Z,2.27
2022-10-10T03:52:42.591Z,2.17
2022-10-10T03:53:44.935Z,2.50
2022-10-10T03:54:47.112Z,2.27
2022-10-10T03:55:49.448Z,2.37
2022-10-10T03:56:51.642Z,2.40
2022-10-10T03:57:53.929Z,2.00
2022-10-10T03:59:02.903Z,2.07
2022-10-10T04:00:05.922Z,2.07
2022-10-10T04:01:08.449Z,2.30
2022-10-10T04:02:10.674Z,2.17
2022-10-10T04:03:12.898Z,2.57
2022-10-10T04:04:15.390Z,1.90
2022-10-10T04:05:17.666Z,1.97
2022-10-10T04:06:20.007Z,2.27
2022-10-10T04:07:22.201Z,2.00
2022-10-10T04:08:24.839Z,2.27
2022-10-10T04:09:29.814Z,2.07
2022-10-10T04:10:34.943Z,2.27
2022-10-10T04:11:38.865Z,2.40
2022-10-10T04:12:41.057Z,2.47
2022-10-10T04:13:43.329Z,2.03
2022-10-10T04:14:45.588Z,2.10
2022-10-10T04:15:51.877Z,2.60
2022-10-10T04:16:54.293Z,2.23
2022-10-10T04:17:56.494Z,2.40
2022-10-10T04:18:58.668Z,2.60
2022-10-10T04:20:03.372Z,2.30
2022-10-10T04:21:09.743Z,2.10
2022-10-10T04:22:12.022Z,1.90
2022-10-10T04:23:14.390Z,2.17
2022-10-10T04:24:16.627Z,2.20
2022-10-10T04:25:18.924Z,2.50
2022-10-10T04:26:21.168Z,2.20
2022-10-10T04:27:23.456Z,2.27
2022-10-10T04:28:25.837Z,2.30
2022-10-10T04:29:28.208Z,2.60
2022-10-10T04:30:33.539Z,2.40
2022-10-10T04:31:35.837Z,2.30
2022-10-10T04:32:38.183Z,2.40
2022-10-10T04:33:40.414Z,2.40
2022-10-10T04:34:42.683Z,2.43
2022-10-10T04:35:47.957Z,2.20
2022-10-10T04:36:50.137Z,2.20
2022-10-10T04:37:53.555Z,2.20
2022-10-10T04:38:55.742Z,2.27
2022-10-10T04:39:58.001Z,2.03
2022-10-10T04:41:00.191Z,2.30
2022-10-10T04:42:05.009Z,2.10
2022-10-10T04:43:07.248Z,2.70
2022-10-10T04:44:09.426Z,2.50
2022-10-10T04:45:11.721Z,2.40
2022-10-10T04:46:13.925Z,2.10
2022-10-10T04:47:16.120Z,2.10
2022-10-10T04:48:18.312Z,2.40
2022-10-10T04:49:20.566Z,2.70
2022-10-10T04:50:24.053Z,2.50
2022-10-10T04:51:28.544Z,2.60
2022-10-10T04:52:30.811Z,2.40
2022-10-10T04:53:36.188Z,2.23
2022-10-10T04:54:38.392Z,2.37
2022-10-10T04:55:41.466Z,2.33
2022-10-10T04:56:43.683Z,2.40
2022-10-10T04:57:45.915Z,2.50
2022-10-10T04:58:48.134Z,2.30
2022-10-10T04:59:53.413Z,2.40
2022-10-10T05:00:56.304Z,2.50
2022-10-10T05:02:01.673Z,2.50
2022-10-10T05:03:04.518Z,2.40
2022-10-10T05:04:08.524Z,2.33
2022-10-10T05:05:10.751Z,2.47
2022-10-10T05:06:13.599Z,2.40
2022-10-10T05:07:15.794Z,2.40
2022-10-10T05:08:18.435Z,2.60
2022-10-10T05:09:28.389Z,2.43
2022-10-10T05:10:40.340Z,2.40
2022-10-10T05:11:42.513Z,2.70
2022-10-10T05:12:44.717Z,2.53
2022-10-10T05:13:47.230Z,2.43
2022-10-10T05:14:49.426Z,2.50
2022-10-10T05:15:52.693Z,2.67
2022-10-10T05:16:54.911Z,2.40
2022-10-10T05:17:57.082Z,2.53
2022-10-10T05:18:59.321Z,2.47
2022-10-10T05:20:01.555Z,2.50
2022-10-10T05:21:04.158Z,2.90
2022-10-10T05:22:06.470Z,2.70
2022-10-10T05:23:08.650Z,2.70
2022-10-10T05:24:10.903Z,2.57
2022-10-10T05:25:13.284Z,2.47
2022-10-10T05:26:15.730Z,2.60
2022-10-10T05:27:17.997Z,2.70
2022-10-10T05:28:20.209Z,2.37
2022-10-10T05:29:22.470Z,2.40
2022-10-10T05:30:24.740Z,2.70
2022-10-10T05:31:26.919Z,2.40
2022-10-10T05:32:29.098Z,2.20
2022-10-10T05:33:34.630Z,2.40
2022-10-10T05:34:36.867Z,2.50
2022-10-10T05:35:39.080Z,2.83
2022-10-10T05:36:42.409Z,2.80
2022-10-10T05:37:44.641Z,2.60
2022-10-10T05:38:46.843Z,2.50
2022-10-10T05:39:53.728Z,2.87
2022-10-10T05:40:56.804Z,2.83
2022-10-10T05:41:58.994Z,3.30
2022-10-10T05:43:04.476Z,3.00
2022-10-10T05:44:06.656Z,3.17
2022-10-10T05:45:09.533Z,3.03
2022-10-10T05:46:11.706Z,3.10
2022-10-10T05:47:14.928Z,2.90
2022-10-10T05:48:17.328Z,3.20
2022-10-10T05:49:19.881Z,3.87
2022-10-10T05:50:34.096Z,3.30
2022-10-10T05:51:36.476Z,3.00
2022-10-10T05:52:38.662Z,3.10
2022-10-10T05:53:40.960Z,2.93
2022-10-10T05:54:46.276Z,3.57
2022-10-10T05:55:48.985Z,2.80
2022-10-10T05:56:51.183Z,3.20
2022-10-10T05:57:53.532Z,3.23
2022-10-10T05:58:55.720Z,3.10
2022-10-10T05:59:57.936Z,3.13
2022-10-10T06:01:06.435Z,3.07
2022-10-10T06:02:08.784Z,3.00
2022-10-10T06:03:14.230Z,3.10
2022-10-10T06:04:16.881Z,3.00
2022-10-10T06:05:19.078Z,3.07
2022-10-10T06:06:21.694Z,3.00
2022-10-10T06:07:23.891Z,3.13
2022-10-10T06:08:26.351Z,2.77
2022-10-10T06:09:28.563Z,3.37
2022-10-10T06:10:33.626Z,2.70
2022-10-10T06:11:35.782Z,2.77
2022-10-10T06:12:38.157Z,3.07
2022-10-10T06:13:40.401Z,2.80
2022-10-10T06:14:42.569Z,2.90
2022-10-10T06:15:45.178Z,3.07
2022-10-10T06:16:47.337Z,3.20
2022-10-10T06:17:49.517Z,3.30
2022-10-10T06:18:52.045Z,3.20
2022-10-10T06:19:54.267Z,3.37
2022-10-10T06:21:01.895Z,3.03
2022-10-10T06:22:04.121Z,3.50
2022-10-10T06:23:08.400Z,3.00
2022-10-10T06:24:10.995Z,3.30
2022-10-10T06:25:35.453Z,3.40
2022-10-10T06:26:35.462Z,4.00
2022-10-10T06:27:37.997Z,5.20
2022-10-10T06:28:40.213Z,6.17
2022-10-10T06:29:42.448Z,5.57
2022-10-10T06:30:45.077Z,7.80
2022-10-10T06:31:47.233Z,7.67
2022-10-10T06:32:52.486Z,6.57
2022-10-10T06:33:56.906Z,5.97
2022-10-10T06:34:59.150Z,5.63
2022-10-10T06:36:05.497Z,5.30
2022-10-10T06:37:08.624Z,5.03
2022-10-10T06:38:11.624Z,4.50
2022-10-10T06:39:13.852Z,4.63
2022-10-10T06:40:18.657Z,4.30
2022-10-10T06:41:20.890Z,4.10
2022-10-10T06:42:23.223Z,3.90
2022-10-10T06:43:33.206Z,3.63
2022-10-10T06:44:35.466Z,3.53
2022-10-10T06:45:47.418Z,3.50
2022-10-10T06:46:49.663Z,4.00
2022-10-10T06:47:54.431Z,5.33
2022-10-10T06:48:56.684Z,5.80
2022-10-10T06:49:59.018Z,5.07
2022-10-10T06:51:04.487Z,5.27
2022-10-10T06:52:06.762Z,4.30
2022-10-10T06:53:09.259Z,4.53
2022-10-10T06:54:12.246Z,4.20
2022-10-10T06:55:14.495Z,3.93
2022-10-10T06:56:27.128Z,3.77
2022-10-10T06:57:29.982Z,3.43
2022-10-10T06:58:33.339Z,3.37
2022-10-10T06:59:35.547Z,3.13
2022-10-10T07:00:37.855Z,3.63
2022-10-10T07:01:40.171Z,3.70
2022-10-10T07:02:42.791Z,3.80
2022-10-10T07:03:45.076Z,3.27
2022-10-10T07:04:47.312Z,3.80
2022-10-10T07:05:59.476Z,3.97
2022-10-10T07:07:01.697Z,3.90
2022-10-10T07:08:03.915Z,3.63
2022-10-10T07:09:08.716Z,3.40
2022-10-10T07:10:15.390Z,3.77
2022-10-10T07:11:17.740Z,3.50
2022-10-10T07:12:23.017Z,3.33
2022-10-10T07:13:27.424Z,3.20
2022-10-10T07:14:29.630Z,3.30
2022-10-10T07:15:31.823Z,3.20
2022-10-10T07:16:34.803Z,2.93
2022-10-10T07:17:37.083Z,3.37
2022-10-10T07:18:39.312Z,3.10
2022-10-10T07:19:41.497Z,3.27
2022-10-10T07:20:43.950Z,3.10
2022-10-10T07:21:46.940Z,3.40
2022-10-10T07:22:49.478Z,3.10
2022-10-10T07:23:55.023Z,3.17
2022-10-10T07:24:57.284Z,3.43
2022-10-10T07:26:08.184Z,3.23
2022-10-10T07:27:10.360Z,3.40
2022-10-10T07:28:12.867Z,3.10
2022-10-10T07:29:15.176Z,3.17
2022-10-10T07:30:17.644Z,3.27
2022-10-10T07:31:19.980Z,3.13
2022-10-10T07:33:43.870Z,3.10
2022-10-10T07:34:48.313Z,2.90
2022-10-10T07:35:54.945Z,3.10
2022-10-10T07:36:57.151Z,3.03
2022-10-10T07:37:59.338Z,3.13
2022-10-10T07:39:01.576Z,2.90
2022-10-10T07:40:04.334Z,2.87
2022-10-10T07:41:12.906Z,3.27
2022-10-10T07:42:15.126Z,3.10
2022-10-10T07:43:17.591Z,3.13
2022-10-10T07:44:20.556Z,3.07
2022-10-10T07:45:22.815Z,3.23
2022-10-10T07:46:25.095Z,3.10
2022-10-10T07:47:27.342Z,3.20
2022-10-10T07:48:30.929Z,3.27
2022-10-10T07:49:33.178Z,3.10
2022-10-10T07:50:35.420Z,3.60
2022-10-10T07:51:38.966Z,3.20
2022-10-10T07:52:41.495Z,3.20
2022-10-10T07:53:44.408Z,3.00
2022-10-10T07:54:46.735Z,3.10
2022-10-10T07:55:48.917Z,2.73
2022-10-10T07:56:54.141Z,3.10
2022-10-10T07:57:56.625Z,3.30
2022-10-10T07:59:00.243Z,3.00
2022-10-10T08:00:08.914Z,3.13
2022-10-10T08:01:17.735Z,3.00
2022-10-10T08:02:20.027Z,3.20
2022-10-10T08:03:22.260Z,3.00
2022-10-10T08:04:24.519Z,3.43
2022-10-10T08:05:29.514Z,3.10
2022-10-10T08:06:31.739Z,3.10
2022-10-10T08:07:34.096Z,3.10
2022-10-10T08:08:44.825Z,3.13
2022-10-10T08:09:50.985Z,3.23
2022-10-10T08:10:53.285Z,3.23
2022-10-10T08:11:55.475Z,3.30
2022-10-10T08:12:57.649Z,3.40
2022-10-10T08:13:59.871Z,3.70
2022-10-10T08:15:02.132Z,3.70
2022-10-10T08:16:05.144Z,3.40
2022-10-10T08:17:07.332Z,3.70
2022-10-10T08:18:09.580Z,3.13
2022-10-10T08:19:11.788Z,3.57
2022-10-10T08:20:14.177Z,3.07
2022-10-10T08:21:18.146Z,3.67
2022-10-10T08:22:20.392Z,3.07
2022-10-10T08:23:23.852Z,3.10
2022-10-10T08:24:26.230Z,2.97
2022-10-10T08:26:47.329Z,3.80
2022-10-10T08:27:49.589Z,3.13
2022-10-10T08:28:51.852Z,3.27
2022-10-10T08:29:56.641Z,3.67
2022-10-10T08:31:00.909Z,3.30
2022-10-10T08:32:04.243Z,3.17
2022-10-10T08:33:06.423Z,3.00
2022-10-10T08:34:10.738Z,3.00
2022-10-10T08:35:12.984Z,3.23
2022-10-10T08:36:22.119Z,3.30
2022-10-10T08:37:29.806Z,2.90
2022-10-10T08:38:35.383Z,3.20
2022-10-10T08:39:37.635Z,2.90
2022-10-10T08:40:53.478Z,3.20
2022-10-10T08:42:01.594Z,3.30
2022-10-10T08:43:09.244Z,3.40
2022-10-10T08:44:57.716Z,3.30
2022-10-10T08:46:14.862Z,3.50
2022-10-10T08:47:36.695Z,3.40
2022-10-10T08:48:40.385Z,3.23
2022-10-10T08:49:50.019Z,3.43
2022-10-10T08:51:06.659Z,3.75
2022-10-10T08:52:39.677Z,3.67
2022-10-10T08:53:47.904Z,3.73
2022-10-10T08:54:57.488Z,3.60
2022-10-10T08:56:02.555Z,3.63
2022-10-10T08:57:07.066Z,3.40
2022-10-10T08:58:27.879Z,3.67
2022-10-10T08:59:36.262Z,3.60
2022-10-10T09:00:41.889Z,3.10
2022-10-10T09:02:17.706Z,3.30
2022-10-10T09:03:21.717Z,3.30
2022-10-10T09:04:23.980Z,3.60
2022-10-10T09:05:32.131Z,3.60
2022-10-10T09:06:45.096Z,3.13
2022-10-10T09:08:09.181Z,2.95
2022-10-10T09:09:17.590Z,3.70
2022-10-10T09:10:56.984Z,3.30
2022-10-10T09:12:05.549Z,3.20
2022-10-10T09:13:25.807Z,3.30
2022-10-10T09:14:59.782Z,3.80
2022-10-10T09:16:22.564Z,3.35
2022-10-10T09:17:48.952Z,3.30
2022-10-10T09:19:05.954Z,3.67
2022-10-10T09:20:32.437Z,3.55
2022-10-10T09:21:37.403Z,3.55
2022-10-10T09:22:54.012Z,3.55
2022-10-10T09:24:03.229Z,3.45
2022-10-10T09:25:21.595Z,3.45
2022-10-10T09:26:28.686Z,3.72
2022-10-10T09:27:37.671Z,3.80
2022-10-10T09:28:47.382Z,3.60
2022-10-10T09:29:56.455Z,3.42
2022-10-10T09:31:01.562Z,3.47
2022-10-10T09:32:20.312Z,3.53
2022-10-10T09:34:00.671Z,3.50
2022-10-10T09:35:15.641Z,3.40
2022-10-10T09:36:26.215Z,2.90
2022-10-10T09:37:46.917Z,3.08
2022-10-10T09:38:59.593Z,3.65
2022-10-10T09:40:19.335Z,3.28
2022-10-10T09:41:41.104Z,3.40
2022-10-10T09:42:45.107Z,3.60
2022-10-10T09:43:48.467Z,3.20
2022-10-10T09:44:50.693Z,3.60
2022-10-10T09:45:58.256Z,3.50
2022-10-10T09:47:00.759Z,3.05
2022-10-10T09:48:03.708Z,3.28
2022-10-10T09:49:06.826Z,3.28
2022-10-10T09:50:13.753Z,3.35
2022-10-10T09:51:18.420Z,3.55
2022-10-10T09:52:25.708Z,3.15
2022-10-10T09:53:27.999Z,3.30
2022-10-10T09:54:30.501Z,3.15
2022-10-10T09:55:39.511Z,3.42
2022-10-10T09:56:48.148Z,3.50
2022-10-10T09:57:53.615Z,3.22
2022-10-10T09:58:57.049Z,3.53
2022-10-10T10:00:03.711Z,3.35
2022-10-10T10:01:20.939Z,2.90
2022-10-10T10:02:28.061Z,3.25
2022-10-10T10:03:30.259Z,3.38
2022-10-10T10:04:33.474Z,3.25
2022-10-10T10:05:35.996Z,3.03
2022-10-10T10:06:39.383Z,3.30
2022-10-10T10:07:48.375Z,3.10
2022-10-10T10:08:53.186Z,2.97
2022-10-10T10:10:11.305Z,2.85
2022-10-10T10:11:33.653Z,2.90
2022-10-10T10:12:42.687Z,3.10
2022-10-10T10:13:45.025Z,2.60
2022-10-10T10:14:47.367Z,2.72
2022-10-10T10:15:55.222Z,2.83
2022-10-10T10:17:08.517Z,3.05
2022-10-10T10:18:13.598Z,2.63
2022-10-10T10:19:36.916Z,2.80
2022-10-10T10:20:45.489Z,2.85
2022-10-10T10:21:51.486Z,2.60
2022-10-10T10:22:53.779Z,2.70
2022-10-10T10:24:19.382Z,2.83
2022-10-10T10:25:56.920Z,2.70
2022-10-10T10:27:10.912Z,2.70
2022-10-10T10:28:26.041Z,2.80
2022-10-10T10:29:32.283Z,2.88
2022-10-10T10:30:34.511Z,2.63
2022-10-10T10:31:48.770Z,2.45
2022-10-10T10:33:02.858Z,2.50
2022-10-10T10:34:20.288Z,2.53
2022-10-10T10:35:50.099Z,2.60
2022-10-10T10:37:21.435Z,2.63
2022-10-10T10:38:24.435Z,2.63
2022-10-10T10:39:44.142Z,2.53
2022-10-10T10:41:25.477Z,2.80
2022-10-10T10:42:49.257Z,2.40
2022-10-10T10:44:00.439Z,2.50
2022-10-10T10:45:29.054Z,2.55
2022-10-10T10:46:47.617Z,2.95
2022-10-10T10:48:22.288Z,3.00
2022-10-10T10:49:57.711Z,2.67
2022-10-10T10:51:18.256Z,2.58
2022-10-10T10:52:20.494Z,2.65
2022-10-10T10:53:53.997Z,2.88
2022-10-10T10:55:35.799Z,3.03
2022-10-10T10:57:40.521Z,2.67
2022-10-10T10:59:24.131Z,2.83
2022-10-10T11:00:25.977Z,3.38
2022-10-10T11:01:56.070Z,2.97
2022-10-10T11:05:20.537Z,2.80
2022-10-10T11:05:31.038Z,2.90
2022-10-10T11:06:59.997Z,2.95
2022-10-10T11:08:25.386Z,3.08
2022-10-10T11:09:50.219Z,2.78
2022-10-10T11:11:13.176Z,2.92
2022-10-10T11:12:24.373Z,2.75
2022-10-10T11:13:43.947Z,2.85
2022-10-10T11:14:56.284Z,2.75
2022-10-10T11:16:13.560Z,2.70
2022-10-10T11:17:37.152Z,2.90
2022-10-10T11:19:04.587Z,2.85
2022-10-10T11:20:36.111Z,3.10
2022-10-10T11:21:44.288Z,2.90
2022-10-10T11:22:54.015Z,2.83
2022-10-10T11:24:09.408Z,2.70
2022-10-10T11:25:23.901Z,2.78
2022-10-10T11:26:39.293Z,3.00
2022-10-10T11:28:22.292Z,2.80
2022-10-10T11:29:32.970Z,2.78
2022-10-10T11:30:44.870Z,2.60
2022-10-10T11:32:13.078Z,2.97
2022-10-10T11:33:22.673Z,3.10
2022-10-10T11:34:31.875Z,2.78
2022-10-10T11:35:45.634Z,3.13
2022-10-10T11:36:48.980Z,2.90
2022-10-10T11:38:16.596Z,2.83
2022-10-10T11:39:24.697Z,2.90
2022-10-10T11:40:45.658Z,2.80
2022-10-10T11:42:06.670Z,3.15
2022-10-10T11:43:19.075Z,2.90
2022-10-10T11:44:36.776Z,3.13
2022-10-10T11:45:53.598Z,2.63
2022-10-10T11:47:06.808Z,2.80
2022-10-10T11:48:52.482Z,3.17
2022-10-10T11:50:06.142Z,2.88
2022-10-10T11:51:23.279Z,2.80
2022-10-10T11:52:33.910Z,2.50
2022-10-10T11:53:42.185Z,2.80
2022-10-10T11:54:54.632Z,2.50
2022-10-10T11:56:03.076Z,2.80
2022-10-10T11:57:16.624Z,3.08
2022-10-10T11:58:25.347Z,2.90
2022-10-10T11:59:36.884Z,3.00
2022-10-10T12:00:56.101Z,2.80
2022-10-10T12:02:02.118Z,2.80
2022-10-10T12:03:04.337Z,2.65
2022-10-10T12:04:06.584Z,2.75
2022-10-10T12:05:29.553Z,2.90
2022-10-10T12:06:44.601Z,2.97
2022-10-10T12:08:03.708Z,2.90
2022-10-10T12:09:15.406Z,3.00
2022-10-10T12:10:39.523Z,2.63
2022-10-10T12:12:02.887Z,3.03
2022-10-10T12:13:18.170Z,3.20
2022-10-10T12:14:23.014Z,2.72
2022-10-10T12:15:41.335Z,2.70
2022-10-10T12:16:46.940Z,3.00
2022-10-10T12:17:49.215Z,2.83
2022-10-10T12:19:17.466Z,2.90
2022-10-10T12:20:25.682Z,3.00
2022-10-10T12:21:30.639Z,3.03
2022-10-10T12:22:32.979Z,2.95
2022-10-10T12:23:36.108Z,3.00
2022-10-10T12:25:07.489Z,3.20
2022-10-10T12:26:19.701Z,3.55
2022-10-10T12:27:42.653Z,3.22
2022-10-10T12:29:06.629Z,3.03
2022-10-10T12:30:09.219Z,3.15
2022-10-10T12:31:11.416Z,3.03
2022-10-10T12:32:13.675Z,3.10
2022-10-10T12:33:20.898Z,2.90
2022-10-10T12:34:56.322Z,2.92
2022-10-10T12:36:20.496Z,2.63
2022-10-10T12:37:34.655Z,3.00
2022-10-10T12:38:36.914Z,2.90
2022-10-10T12:40:00.007Z,3.33
2022-10-10T12:41:10.024Z,3.17
2022-10-10T12:42:50.713Z,3.20
2022-10-10T12:44:14.591Z,3.30
2022-10-10T12:45:29.245Z,3.15
2022-10-10T12:46:33.407Z,3.30
2022-10-10T12:48:04.568Z,3.10
2022-10-10T12:49:18.572Z,2.97
2022-10-10T12:50:40.569Z,2.85
2022-10-10T12:51:44.661Z,3.35
2022-10-10T12:52:51.437Z,2.90
2022-10-10T12:53:57.039Z,3.50
2022-10-10T12:55:07.800Z,3.20
2022-10-10T12:56:12.888Z,3.03
2022-10-10T12:57:25.579Z,3.17
2022-10-10T12:58:39.471Z,3.00
2022-10-10T12:59:42.175Z,3.10
2022-10-10T13:00:47.668Z,3.10
2022-10-10T13:01:57.494Z,2.85
2022-10-10T13:03:03.295Z,2.92
2022-10-10T13:04:05.746Z,2.80
2022-10-10T13:05:12.047Z,3.08
2022-10-10T13:06:30.943Z,2.97
2022-10-10T13:07:33.288Z,3.28
2022-10-10T13:08:37.558Z,2.80
2022-10-10T13:09:40.358Z,2.80
2022-10-10T13:10:42.655Z,2.95
2022-10-10T13:11:59.331Z,3.08
2022-10-10T13:13:01.548Z,3.08
2022-10-10T13:14:08.614Z,3.10
2022-10-10T13:15:20.356Z,2.80
2022-10-10T13:16:28.741Z,3.13
2022-10-10T13:17:41.277Z,3.00
2022-10-10T13:18:49.419Z,3.10
2022-10-10T13:19:53.587Z,3.20
2022-10-10T13:20:56.401Z,3.10
2022-10-10T13:21:58.659Z,2.85
2022-10-10T13:23:05.307Z,3.28
2022-10-10T13:24:07.927Z,3.30
2022-10-10T13:25:11.609Z,3.25
2022-10-10T13:26:36.755Z,3.03
2022-10-10T13:27:38.992Z,2.90
2022-10-10T13:28:44.751Z,3.17
2022-10-10T13:29:47.272Z,2.80
2022-10-10T13:30:50.710Z,3.30
2022-10-10T13:31:57.108Z,3.30
2022-10-10T13:32:59.418Z,3.33
2022-10-10T13:34:07.558Z,2.75
2022-10-10T13:35:29.267Z,2.95
2022-10-10T13:36:32.525Z,3.15
2022-10-10T13:37:35.603Z,3.20
2022-10-10T13:38:38.440Z,3.13
2022-10-10T13:39:40.824Z,2.97
2022-10-10T13:40:44.514Z,2.92
2022-10-10T13:41:48.237Z,3.05
2022-10-10T13:42:51.316Z,3.20
2022-10-10T13:43:56.595Z,2.88
2022-10-10T13:45:00.534Z,3.40
2022-10-10T13:46:04.213Z,2.45
2022-10-10T13:47:54.596Z,3.20
2022-10-10T13:48:57.590Z,2.88
2022-10-10T13:49:59.956Z,3.15
2022-10-10T13:51:14.007Z,3.30
2022-10-10T13:52:24.024Z,3.00
2022-10-10T13:53:29.299Z,3.38
2022-10-10T13:54:43.199Z,3.20
2022-10-10T13:55:45.767Z,3.20
2022-10-10T13:56:48.066Z,3.28
2022-10-10T13:57:51.438Z,3.10
2022-10-10T13:59:02.389Z,3.13
2022-10-10T14:00:15.013Z,3.30
2022-10-10T14:01:33.829Z,3.10
2022-10-10T14:02:37.484Z,3.00
2022-10-10T14:03:46.721Z,2.90
2022-10-10T14:04:54.229Z,3.08
2022-10-10T14:05:56.775Z,3.15
2022-10-10T14:07:06.578Z,3.03
2022-10-10T14:08:21.436Z,3.65
2022-10-10T14:09:42.139Z,3.35
2022-10-10T14:11:15.576Z,3.42
2022-10-10T14:12:26.221Z,2.95
2022-10-10T14:13:30.817Z,3.33
2022-10-10T14:14:44.162Z,3.28
2022-10-10T14:15:47.326Z,3.15
2022-10-10T14:17:03.235Z,3.33
2022-10-10T14:18:23.703Z,3.60
2022-10-10T14:19:26.405Z,3.20
2022-10-10T14:20:28.591Z,3.10
2022-10-10T14:21:30.803Z,3.17
2022-10-10T14:22:33.027Z,3.40
2022-10-10T14:23:37.076Z,3.08
2022-10-10T14:24:39.382Z,3.00
2022-10-10T14:25:47.039Z,3.38
2022-10-10T14:26:49.851Z,3.20
2022-10-10T14:27:52.025Z,3.42
2022-10-10T14:28:54.343Z,3.00
2022-10-10T14:29:58.367Z,3.25
2022-10-10T14:31:01.153Z,3.25
2022-10-10T14:32:03.645Z,3.15
2022-10-10T14:33:14.459Z,3.20
2022-10-10T14:34:16.768Z,3.28
2022-10-10T14:35:18.959Z,3.65
2022-10-10T14:36:24.245Z,3.20
2022-10-10T14:37:29.144Z,3.17
2022-10-10T14:38:32.366Z,3.42
2022-10-10T14:39:34.694Z,3.00
2022-10-10T14:40:37.708Z,3.15
2022-10-10T14:41:39.936Z,3.20
2022-10-10T14:42:42.133Z,3.50
2022-10-10T14:43:46.070Z,3.30
2022-10-10T14:44:52.249Z,3.40
2022-10-10T14:45:54.946Z,3.50
2022-10-10T14:46:57.209Z,3.15
2022-10-10T14:47:59.417Z,3.42
2022-10-10T14:49:02.513Z,3.10
2022-10-10T14:50:17.703Z,3.65
2022-10-10T14:51:33.963Z,3.22
2022-10-10T14:52:38.069Z,3.05
2022-10-10T14:53:43.020Z,3.35
2022-10-10T14:55:05.776Z,3.10
2022-10-10T14:56:14.155Z,3.30
2022-10-10T14:57:16.403Z,3.25
2022-10-10T14:58:21.277Z,3.13
2022-10-10T14:59:49.224Z,3.22
2022-10-10T15:00:46.496Z,2.90
2022-10-10T15:01:48.764Z,3.42
2022-10-10T15:02:51.134Z,3.50
2022-10-10T15:03:53.427Z,3.25
2022-10-10T15:04:55.667Z,3.10
2022-10-10T15:05:57.959Z,3.45
2022-10-10T15:07:12.962Z,3.05